Santa Barbara, CA (93101)

8:24 AM PST on February 12, 2016 (GMT -0800)
Oak Park Neighborhood Castillo and Pedregosa | | Change Station
CLOSE
Current Station
Personal Weather Station
Location: Santa Barbara, CA
Elevation: 118 ft
Nearby Weather Stations
Active Advisory: Beach Hazard Statement

Elev 118 ft 34.42 °N, 119.72 °W | Updated 1 second ago

Clear
Clear
55.8 °F
Feels Like 55.8 °F
N
0.0
Wind Variable Wind from ESE

Today
High -- | Low -- °F
--% Chance of Precip.
Yesterday
High -- | Low -- °F
Precip. -- in
Pressure 30.11 in
Visibility 10.0 miles
Clouds Few 200 ft
Dew Point 48 °F
Humidity 76%
Rainfall 0.00 in
Snow Depth Not available.
6:47 AM 5:39 PM
Waxing Crescent, 21% visible
SPECI KSBA 121614Z 00000KT 10SM FEW002 12/07 A3011 RMK AO2 T01170072
Pressure 30.11 in
Visibility 10.0 miles
Clouds Few 200 ft
Dew Point 48 °F
Humidity 76%
Rainfall 0.00 in
Snow Depth Not available.
6:47 AM 5:39 PM
Waxing Crescent, 21% visible
SPECI KSBA 121614Z 00000KT 10SM FEW002 12/07 A3011 RMK AO2 T01170072

10-Day Weather Forecast

Almanac

Astronomy

Feb. 12, 2016 Rise Set
Actual Time
Civil Twilight
Nautical Twilight
Astronomical Twilight
Moon
Length of Visible Light
Length of Day
Tomorrow will be .
, % of the Moon is Illuminated

Today's Extremes

State Highs State Lows

Community

WunderPhotos

Upload Photos

1,892,350 photos uploaded!

WunderBlog® & News

Nearby

Air Quality

  Air Quality AQ Index Pollutant
Not available.

Snow Depth

Station Depth Elevation

Earthquake Activity

City Distance Mag. Time & Date
Minimum magnitude displayed is 2.5.

Coastal Water Temperatures

Place Temperature

Stations

Nearby Weather Stations

Station Location Temp. Windchill Dew Point Humidity Wind Precip. Elev Updated Type
                   

Watches & Warnings

Beach Hazard Statement
Issued: 3:01 AM PST Feb. 12, 2016 – National Weather Service

... Beach hazards statement remains in effect from 9 am PST this
morning through Sunday morning...

* surf and timing... surf will build to 4 to 6 feet with local sets
to 7 feet today... then persist through early Sunday before
slowly subsiding.

* Hazards... dangerous rip currents are expected due to elevated
surf. Sneaker waves can suddenly overrun previously dry areas
near the time of high tide.

* Locations... surf will be highest on west facing beaches.

Precautionary/preparedness actions...

A beach hazards statement is issued when threats to beach and
surf zone safety are expected or occurring. Caution should be
used when in or near the water. Stay near occupied lifeguard
towers and never swim alone. If caught in a rip current... swim
parallel to the shore.